首页
METAR-TAF:

METAR-TAF

机场 :

彭德-雅皮特國際機場

皮特尔角城, 瓜德罗普

纬度: 16-16N, 经度: 061-31W, 海拔: 11米

当前天气观测

该预报发布于39分钟前的10:30 UTC
风速5节,风向
温度 25°C
湿度 74%
气压 1017 hPa
能见度10公里或以上
1500米以下无云,无积雨云

METAR: TFFR 211030Z AUTO 09005KT CAVOK 25/20 Q1017

时间: 07:09 (11:09 UTC)

预报

该预报发布于18小时和9分钟前的17:00 UTC
预报有效从20日的 18点(UTC)到 21日的 18点(UTC)
风速10节,风向东南
能见度10公里或以上
散云层高于3000英尺
几率 30% :
短暂存在
从 21日的 00点(UTC)到 21日的 10点(UTC)
能見度: 4000
散云层高于1800英尺, 塔状积云.
散云层高于2500英尺
阵雨
成为
从 21日的 00点(UTC)到 21日的 02点(UTC)
风速2节,风向多变

TAF: TFFR 201700Z 2018/2118 13010KT 9999 SCT030 PROB30 TEMPO 2100/2110 4000 SHRA SCT018TCU SCT025 BECMG 2100/2102 VRB02KT

超过4000个机场的气象观测和天气预报(METAR&TAF报告)。

可查询的气象台以黄色和红色小点在地图上表示。

将鼠标移到小点上方,可查看气象台名称。

然后点击查看天气观测和预报。

如需切换地图:点击带黑十字的绿色按钮放大地图;点击带横线的绿色按钮缩小地图;或者点击绿色箭头查看邻近地区的地图。


METAR-TAF: